Time;durP1;ratioP1;P1;durP2;ratioP2;P2;SDS_P1;SDS_P2;PMS_P1;PMS_P2;Temp;Humidity;BMP_temperature;BMP_pressure;BME280_temperature;BME280_humidity;BME280_pressure;Samples;Min_cycle;Max_cycle;Signal;HPM_P1;HPM_P2
2024/02/15 00:02:01;;;;;;;3.33;2.03;;;11.40;1.00;;;;;;7369547;19;20026;-72
2024/02/15 00:04:33;;;;;;;2.30;1.63;;;11.40;1.00;;;;;;7365970;19;20054;-72
2024/02/15 00:07:03;;;;;;;2.45;1.63;;;11.30;1.00;;;;;;7367792;19;20011;-73
2024/02/15 00:09:33;;;;;;;2.60;1.42;;;11.30;1.00;;;;;;7367694;19;20016;-72
2024/02/15 00:12:06;;;;;;;3.15;2.08;;;11.30;1.00;;;;;;7367833;19;20079;-72
2024/02/15 00:14:38;;;;;;;1.55;1.35;;;11.30;1.00;;;;;;7368955;19;20010;-72
2024/02/15 00:17:08;;;;;;;2.83;1.42;;;11.30;1.00;;;;;;7367263;19;20132;-72
2024/02/15 00:19:36;;;;;;;2.40;1.60;;;11.30;1.00;;;;;;7369330;19;20403;-73
2024/02/15 00:22:06;;;;;;;3.05;1.70;;;11.30;1.00;;;;;;7365613;19;21266;-72
2024/02/15 00:24:39;;;;;;;3.10;1.70;;;11.30;1.00;;;;;;7369613;19;20006;-73
2024/02/15 00:27:11;;;;;;;3.88;1.80;;;11.30;1.00;;;;;;7367293;19;20602;-72
2024/02/15 00:29:42;;;;;;;2.35;1.55;;;11.30;1.00;;;;;;7365852;19;20483;-72
2024/02/15 00:32:12;;;;;;;2.42;1.55;;;11.20;1.00;;;;;;7364751;19;20068;-72
2024/02/15 00:34:43;;;;;;;3.53;1.55;;;11.20;1.00;;;;;;7365153;19;20018;-73
2024/02/15 00:37:13;;;;;;;6.28;1.83;;;11.20;1.00;;;;;;7363950;19;20027;-73
2024/02/15 00:39:43;;;;;;;2.67;1.70;;;11.10;1.00;;;;;;7366672;19;20010;-73
2024/02/15 00:42:16;;;;;;;3.03;1.85;;;11.10;1.00;;;;;;7365851;19;20486;-73
2024/02/15 00:44:46;;;;;;;2.28;1.42;;;11.10;1.00;;;;;;7363198;19;20018;-73
2024/02/15 00:47:18;;;;;;;2.75;1.75;;;11.10;1.00;;;;;;7366168;19;20451;-73
2024/02/15 00:49:50;;;;;;;3.20;1.50;;;11.10;1.00;;;;;;7368043;19;20018;-73
2024/02/15 00:52:20;;;;;;;3.05;1.50;;;11.10;1.00;;;;;;7365550;19;20796;-73
2024/02/15 00:54:50;;;;;;;4.53;1.70;;;11.00;1.00;;;;;;7367295;19;20633;-72
2024/02/15 00:57:22;;;;;;;2.75;1.70;;;11.00;1.00;;;;;;7365775;19;20021;-72
2024/02/15 00:59:52;;;;;;;4.07;1.70;;;10.90;1.00;;;;;;7368236;19;20021;-73
2024/02/15 01:02:23;;;;;;;4.55;1.70;;;10.90;1.00;;;;;;7367622;19;20006;-72
2024/02/15 01:04:55;;;;;;;2.50;1.95;;;10.80;1.00;;;;;;7368209;19;20866;-72
2024/02/15 01:07:26;;;;;;;3.97;2.17;;;10.80;1.00;;;;;;7365521;19;20393;-74
2024/02/15 01:09:56;;;;;;;4.65;2.33;;;10.80;1.00;;;;;;7366264;19;20047;-73
2024/02/15 01:12:29;;;;;;;3.42;1.90;;;10.70;1.00;;;;;;7366156;19;20503;-73
2024/02/15 01:14:59;;;;;;;3.30;1.75;;;10.70;1.00;;;;;;7366973;19;20015;-72
2024/02/15 01:17:29;;;;;;;3.72;1.27;;;10.70;1.00;;;;;;7365734;19;20014;-73
2024/02/15 01:19:59;;;;;;;4.35;1.70;;;10.70;1.00;;;;;;7367324;19;20018;-73
2024/02/15 01:22:29;;;;;;;3.17;1.80;;;10.70;1.00;;;;;;7366775;19;20009;-73
2024/02/15 01:24:59;;;;;;;5.50;1.50;;;10.70;1.00;;;;;;7366020;19;20035;-72
2024/02/15 01:27:32;;;;;;;3.13;1.40;;;10.70;1.00;;;;;;7365790;19;20042;-73
2024/02/15 01:30:02;;;;;;;4.55;1.67;;;10.60;1.00;;;;;;7366706;19;20043;-72
2024/02/15 01:32:34;;;;;;;3.25;1.85;;;10.60;1.00;;;;;;7364748;19;20721;-72
2024/02/15 01:35:07;;;;;;;2.13;1.15;;;10.60;1.00;;;;;;7365070;19;20003;-72
2024/02/15 01:37:37;;;;;;;2.70;1.50;;;10.60;1.00;;;;;;7364393;19;20035;-72
2024/02/15 01:40:12;;;;;;;3.13;1.40;;;10.50;1.00;;;;;;7366002;19;20019;-72
2024/02/15 01:42:47;;;;;;;4.78;1.55;;;10.50;1.00;;;;;;7365002;19;20010;-72
2024/02/15 01:45:16;;;;;;;;;;;10.40;1.00;;;;;;7363994;19;20010;-73
2024/02/15 01:47:47;;;;;;;6.53;1.85;;;10.40;1.00;;;;;;7363953;19;19926;-73
2024/02/15 01:50:18;;;;;;;4.45;1.73;;;10.50;1.00;;;;;;7365648;19;20014;-73
2024/02/15 01:52:50;;;;;;;2.55;1.55;;;10.40;1.00;;;;;;7364811;19;20011;-73
2024/02/15 01:55:20;;;;;;;4.18;1.50;;;10.40;1.00;;;;;;7364962;19;20006;-73
2024/02/15 01:57:53;;;;;;;3.88;1.50;;;10.40;1.00;;;;;;7364511;19;20014;-73
2024/02/15 02:00:24;;;;;;;2.63;1.38;;;10.30;1.00;;;;;;7365601;19;20014;-73
2024/02/15 02:03:02;;;;;;;4.72;1.73;;;10.30;1.00;;;;;;7363313;19;20424;-73
2024/02/15 02:05:34;;;;;;;4.00;1.60;;;10.20;1.00;;;;;;7364741;19;20356;-72
2024/02/15 02:08:09;;;;;;;2.72;1.67;;;10.20;1.00;;;;;;7363024;19;20018;-72
2024/02/15 02:10:39;;;;;;;2.65;1.65;;;10.20;1.00;;;;;;7365088;19;20473;-73
2024/02/15 02:13:12;;;;;;;2.65;1.65;;;10.10;1.00;;;;;;7364111;19;20010;-72
2024/02/15 02:15:42;;;;;;;3.88;1.70;;;10.10;1.00;;;;;;7367739;19;20027;-73
2024/02/15 02:18:12;;;;;;;3.58;2.05;;;10.00;1.00;;;;;;7368712;19;20035;-73
2024/02/15 02:20:42;;;;;;;5.00;1.80;;;10.10;1.00;;;;;;7373900;19;20464;-73
2024/02/15 02:23:18;;;;;;;3.13;1.50;;;10.10;1.00;;;;;;7371784;19;20020;-74
2024/02/15 02:25:51;;;;;;;3.25;1.77;;;10.20;1.00;;;;;;7370977;19;20121;-72
2024/02/15 02:28:22;;;;;;;4.40;1.65;;;10.20;1.00;;;;;;7372332;19;20015;-71
2024/02/15 02:30:53;;;;;;;4.07;1.60;;;10.30;1.00;;;;;;7372203;19;20388;-72
2024/02/15 02:33:24;;;;;;;4.38;1.85;;;10.30;1.00;;;;;;7370332;19;20013;-72
2024/02/15 02:35:57;;;;;;;4.18;1.80;;;10.40;1.00;;;;;;7371797;19;20582;-72
2024/02/15 02:38:28;;;;;;;4.75;1.45;;;10.40;1.00;;;;;;7371629;19;20479;-72
2024/02/15 02:41:00;;;;;;;2.95;1.70;;;10.30;1.00;;;;;;7371883;19;20014;-72
2024/02/15 02:43:30;;;;;;;4.15;1.73;;;10.30;1.00;;;;;;7370047;19;20017;-72
2024/02/15 02:46:00;;;;;;;2.13;1.55;;;10.20;1.00;;;;;;7371268;19;20017;-73
2024/02/15 02:48:31;;;;;;;3.80;1.67;;;10.30;1.00;;;;;;7369916;19;20014;-73
2024/02/15 02:51:01;;;;;;;4.82;1.80;;;10.20;1.00;;;;;;7370408;19;20475;-72
2024/02/15 02:53:31;;;;;;;2.88;1.70;;;10.20;1.00;;;;;;7369818;19;20010;-72
2024/02/15 02:56:04;;;;;;;2.60;1.30;;;10.10;1.00;;;;;;7370857;19;20010;-72
2024/02/15 02:58:34;;;;;;;3.13;1.50;;;10.10;1.00;;;;;;7370132;19;20017;-72
2024/02/15 03:01:04;;;;;;;3.17;1.92;;;10.10;1.00;;;;;;7371823;19;20460;-72
2024/02/15 03:03:34;;;;;;;3.65;1.50;;;10.00;1.00;;;;;;7370093;19;20010;-72
2024/02/15 03:06:05;;;;;;;2.95;1.52;;;10.00;1.00;;;;;;7369178;19;20132;-72
2024/02/15 03:08:35;;;;;;;4.45;1.85;;;10.00;1.00;;;;;;7369544;19;20705;-72
2024/02/15 03:11:07;;;;;;;3.20;1.70;;;9.90;1.00;;;;;;7370570;19;20036;-72
2024/02/15 03:13:37;;;;;;;3.90;2.00;;;9.90;1.00;;;;;;7368023;19;20081;-72
2024/02/15 03:16:08;;;;;;;6.07;2.00;;;9.90;1.00;;;;;;7369083;19;20817;-72
2024/02/15 03:18:38;;;;;;;4.80;2.13;;;9.90;1.00;;;;;;7370559;19;20037;-71
2024/02/15 03:21:10;;;;;;;5.13;1.92;;;9.90;1.00;;;;;;7370426;19;20879;-72
2024/02/15 03:23:40;;;;;;;4.05;1.90;;;9.90;1.00;;;;;;7368052;19;20002;-70
2024/02/15 03:26:13;;;;;;;2.70;1.58;;;9.80;1.00;;;;;;7367971;19;20097;-70
2024/02/15 03:28:44;;;;;;;3.20;1.80;;;9.80;1.00;;;;;;7371227;19;20579;-72
2024/02/15 03:31:14;;;;;;;2.45;2.00;;;9.80;1.00;;;;;;7371767;19;20044;-72
2024/02/15 03:33:49;;;;;;;4.72;2.00;;;9.70;1.00;;;;;;7370344;19;20014;-71
2024/02/15 03:36:21;;;;;;;4.05;1.70;;;9.80;1.00;;;;;;7364710;19;20042;-71
2024/02/15 03:38:53;;;;;;;1.98;1.42;;;9.80;1.00;;;;;;7371174;19;20054;-71
2024/02/15 03:41:30;;;;;;;2.92;1.70;;;9.80;1.00;;;;;;7368434;19;20325;-72
2024/02/15 03:44:01;;;;;;;2.42;1.55;;;9.90;1.00;;;;;;7368845;19;20013;-72
2024/02/15 03:46:32;;;;;;;2.92;1.83;;;9.90;1.00;;;;;;7367890;19;20037;-72
2024/02/15 03:49:02;;;;;;;1.98;1.35;;;9.90;1.00;;;;;;7368903;19;20018;-72
2024/02/15 03:51:32;;;;;;;4.40;1.55;;;10.00;1.00;;;;;;7369455;19;20086;-71
2024/02/15 03:54:03;;;;;;;4.07;1.85;;;10.00;1.00;;;;;;7367012;19;20317;-73
2024/02/15 03:56:37;;;;;;;4.22;1.75;;;10.10;1.00;;;;;;7363267;19;20073;-72
2024/02/15 03:59:07;;;;;;;3.72;2.15;;;10.10;1.00;;;;;;7369032;19;20018;-72
2024/02/15 04:01:37;;;;;;;2.22;1.75;;;10.10;1.00;;;;;;7367595;19;20014;-72
2024/02/15 04:04:07;;;;;;;3.20;1.60;;;10.10;1.00;;;;;;7367884;19;20098;-73
2024/02/15 04:06:38;;;;;;;4.18;2.13;;;10.10;1.00;;;;;;7367470;19;20015;-73
2024/02/15 04:09:08;;;;;;;3.67;1.98;;;10.10;1.00;;;;;;7368983;19;20025;-72
2024/02/15 04:11:43;;;;;;;3.92;1.98;;;10.10;1.00;;;;;;7366990;19;20588;-72
2024/02/15 04:14:13;;;;;;;3.38;2.10;;;10.10;1.00;;;;;;7368186;19;20384;-72
2024/02/15 04:16:43;;;;;;;2.67;1.70;;;10.10;1.00;;;;;;7367909;19;20015;-72
2024/02/15 04:19:13;;;;;;;4.47;2.10;;;10.10;1.00;;;;;;7368715;19;20039;-72
2024/02/15 04:21:44;;;;;;;3.30;1.73;;;10.10;1.00;;;;;;7368871;19;20010;-72
2024/02/15 04:24:14;;;;;;;3.78;1.90;;;10.20;1.00;;;;;;7366554;19;20015;-74
2024/02/15 04:26:48;;;;;;;3.60;2.42;;;10.20;1.00;;;;;;7368959;19;20011;-72
2024/02/15 04:29:20;;;;;;;4.20;1.80;;;10.10;1.00;;;;;;7369609;19;20082;-72
2024/02/15 04:31:50;;;;;;;6.32;2.25;;;10.10;1.00;;;;;;7365064;19;20628;-73
2024/02/15 04:34:20;;;;;;;4.45;1.95;;;10.10;1.00;;;;;;7366736;19;20098;-72
2024/02/15 04:36:52;;;;;;;2.42;1.92;;;10.00;1.00;;;;;;7367732;19;20029;-72
2024/02/15 04:39:24;;;;;;;4.65;1.90;;;10.10;1.00;;;;;;7367901;19;20014;-74
2024/02/15 04:41:57;;;;;;;5.07;2.35;;;10.00;1.00;;;;;;7368029;19;20022;-71
2024/02/15 04:44:28;;;;;;;4.90;2.85;;;10.00;1.00;;;;;;7367291;19;20006;-72
2024/02/15 04:46:58;;;;;;;6.10;3.70;;;10.00;1.00;;;;;;7365743;19;20015;-72
2024/02/15 04:49:28;;;;;;;4.43;2.70;;;10.00;1.00;;;;;;7369655;19;20386;-71
2024/02/15 04:52:01;;;;;;;6.68;3.90;;;10.10;1.00;;;;;;7368153;19;20014;-72
2024/02/15 04:54:32;;;;;;;8.18;4.25;;;10.10;1.00;;;;;;7367085;19;20010;-71
2024/02/15 04:57:08;;;;;;;3.50;2.25;;;10.20;1.00;;;;;;7366039;19;20079;-72
2024/02/15 04:59:38;;;;;;;4.32;2.15;;;10.20;1.00;;;;;;7367914;19;20019;-72
2024/02/15 05:02:09;;;;;;;6.10;2.92;;;10.20;1.00;;;;;;7367611;19;20010;-72
2024/02/15 05:04:42;;;;;;;5.70;3.40;;;10.20;1.00;;;;;;7366463;19;20022;-72
2024/02/15 05:07:16;;;;;;;4.68;2.40;;;10.20;1.00;;;;;;7365623;19;20454;-72
2024/02/15 05:09:46;;;;;;;6.90;2.22;;;10.20;1.00;;;;;;7369518;19;20082;-71
2024/02/15 05:12:25;;;;;;;4.45;2.00;;;10.20;1.00;;;;;;7366934;19;20003;-72
2024/02/15 05:14:56;;;;;;;6.40;2.35;;;10.20;1.00;;;;;;7363984;19;20014;-72
2024/02/15 05:17:28;;;;;;;5.45;2.40;;;10.10;1.00;;;;;;7366478;19;20065;-72
2024/02/15 05:19:59;;;;;;;4.45;1.95;;;10.20;1.00;;;;;;7365251;19;20007;-71
2024/02/15 05:22:29;;;;;;;4.85;2.10;;;10.10;1.00;;;;;;7365417;19;20018;-72
2024/02/15 05:24:59;;;;;;;4.45;2.40;;;10.20;1.00;;;;;;7367072;19;20015;-71
2024/02/15 05:27:33;;;;;;;5.88;2.22;;;10.20;1.00;;;;;;7365146;19;20007;-72
2024/02/15 05:30:06;;;;;;;7.77;2.27;;;10.10;1.00;;;;;;7365982;19;20019;-73
2024/02/15 05:32:41;;;;;;;3.67;1.77;;;10.20;1.00;;;;;;7364285;19;20768;-73
2024/02/15 05:35:12;;;;;;;4.78;2.25;;;10.20;1.00;;;;;;7366445;19;20021;-72
2024/02/15 05:37:42;;;;;;;4.38;2.60;;;10.10;1.00;;;;;;7365605;19;20011;-71
2024/02/15 05:40:15;;;;;;;3.30;1.80;;;10.10;1.00;;;;;;7365705;19;20017;-71
2024/02/15 05:42:49;;;;;;;4.10;2.00;;;10.10;1.00;;;;;;7366100;19;20517;-71
2024/02/15 05:45:39;;;;;;;4.57;2.50;;;10.20;1.00;;;;;;7363711;19;20341;-72
2024/02/15 05:48:12;;;;;;;4.68;2.10;;;10.30;1.00;;;;;;6856688;19;2004234;-73
2024/02/15 05:50:43;;;;;;;6.53;2.40;;;10.30;1.00;;;;;;7373151;19;20026;-72
2024/02/15 05:53:13;;;;;;;4.40;2.53;;;10.30;1.00;;;;;;7369005;19;24750;-72
2024/02/15 05:55:44;;;;;;;5.97;2.10;;;10.30;1.00;;;;;;7368847;19;20015;-72
2024/02/15 05:58:16;;;;;;;5.28;2.40;;;10.30;1.00;;;;;;7371785;19;20027;-72
2024/02/15 06:00:49;;;;;;;3.80;2.30;;;10.30;1.00;;;;;;7372329;19;20047;-73
2024/02/15 06:03:22;;;;;;;4.18;2.50;;;10.30;1.00;;;;;;7371763;19;20010;-71
2024/02/15 06:05:57;;;;;;;4.18;2.30;;;10.20;1.00;;;;;;7369963;19;20060;-72
2024/02/15 06:08:29;;;;;;;3.38;2.53;;;10.30;1.00;;;;;;7370923;19;20086;-72
2024/02/15 06:11:00;;;;;;;6.18;2.47;;;10.20;1.00;;;;;;7374694;19;20074;-72
2024/02/15 06:13:33;;;;;;;5.72;2.40;;;10.20;1.00;;;;;;7371978;19;20010;-73
2024/02/15 06:16:08;;;;;;;5.88;2.83;;;10.30;1.00;;;;;;7371431;19;20027;-72
2024/02/15 06:18:39;;;;;;;6.35;2.67;;;10.30;1.00;;;;;;7371315;19;20139;-72
2024/02/15 06:21:09;;;;;;;6.10;2.65;;;10.30;1.00;;;;;;7372272;19;20010;-72
2024/02/15 06:23:39;;;;;;;6.35;2.90;;;10.20;1.00;;;;;;7370512;19;20094;-70
2024/02/15 06:26:09;;;;;;;4.63;2.30;;;10.30;1.00;;;;;;7369977;19;20104;-72
2024/02/15 06:39:45;;;;;;;4.70;2.20;;;10.20;1.00;;;;;;7365455;19;20510;-72
2024/02/15 06:42:18;;;;;;;7.68;2.95;;;10.20;1.00;;;;;;7370828;19;20022;-71
2024/02/15 06:44:51;;;;;;;7.68;3.30;;;10.20;1.00;;;;;;7372048;19;20007;-72
2024/02/15 06:47:21;;;;;;;7.75;3.22;;;10.30;1.00;;;;;;7369288;19;20496;-71
2024/02/15 06:49:53;;;;;;;7.95;3.00;;;10.20;1.00;;;;;;7370319;19;20014;-72
2024/02/15 06:52:24;;;;;;;8.18;3.40;;;10.20;1.00;;;;;;7368986;19;20010;-72
2024/02/15 06:54:54;;;;;;;5.65;3.22;;;10.20;1.00;;;;;;7371601;19;20578;-72
2024/02/15 06:57:24;;;;;;;4.65;3.22;;;10.20;1.00;;;;;;7371261;19;20728;-72
2024/02/15 06:59:56;;;;;;;10.43;3.95;;;10.30;1.00;;;;;;7369470;19;20030;-71
2024/02/15 07:02:27;;;;;;;7.75;3.50;;;10.40;1.00;;;;;;7368754;19;20026;-72
2024/02/15 07:04:57;;;;;;;7.75;3.50;;;10.40;1.00;;;;;;7368499;19;20113;-72
2024/02/15 07:07:27;;;;;;;13.63;4.22;;;10.40;1.00;;;;;;7367869;19;20018;-71
2024/02/15 07:09:57;;;;;;;17.50;3.95;;;10.40;1.00;;;;;;7370123;19;20002;-71
2024/02/15 07:12:27;;;;;;;15.65;4.18;;;10.40;1.00;;;;;;7367279;19;20045;-72
2024/02/15 07:15:01;;;;;;;12.10;4.72;;;10.50;1.00;;;;;;7373372;19;20034;-71
2024/02/15 07:17:31;;;;;;;9.82;4.53;;;10.50;1.00;;;;;;7367674;19;20034;-70
2024/02/15 07:20:03;;;;;;;9.90;4.25;;;10.60;1.00;;;;;;7369858;19;20002;-73
2024/02/15 07:22:35;;;;;;;6.40;3.78;;;10.60;1.00;;;;;;7368736;19;20031;-72
2024/02/15 07:25:06;;;;;;;12.57;4.18;;;10.70;1.00;;;;;;7366573;19;20704;-72
2024/02/15 07:27:36;;;;;;;7.13;3.85;;;10.70;1.00;;;;;;7369204;19;20015;-72
2024/02/15 07:30:10;;;;;;;14.02;4.38;;;10.70;1.00;;;;;;7368294;19;20862;-71
2024/02/15 07:32:40;;;;;;;6.07;3.45;;;10.80;1.00;;;;;;7369236;19;20014;-71
2024/02/15 07:35:11;;;;;;;6.40;3.20;;;10.80;1.00;;;;;;7369028;19;20030;-70
2024/02/15 07:37:53;;;;;;;8.98;2.83;;;10.80;1.00;;;;;;7368909;19;20010;-71
2024/02/15 07:40:27;;;;;;;6.65;3.20;;;10.90;1.00;;;;;;7368790;19;20010;-72
2024/02/15 07:42:57;;;;;;;;;;;10.90;1.00;;;;;;7369608;19;20018;-71
2024/02/15 07:45:32;;;;;;;8.15;2.83;;;11.10;1.00;;;;;;7368915;19;19923;-72
2024/02/15 07:48:04;;;;;;;4.13;2.30;;;11.10;1.00;;;;;;7369634;19;20019;-72
2024/02/15 07:50:37;;;;;;;9.60;4.55;;;11.20;1.00;;;;;;7370578;19;20077;-72
2024/02/15 07:53:10;;;;;;;6.13;2.40;;;11.30;1.00;;;;;;7360047;19;20050;-71
2024/02/15 07:55:41;;;;;;;7.53;2.92;;;11.40;1.00;;;;;;7368996;19;20020;-71
2024/02/15 07:58:12;;;;;;;6.57;2.63;;;11.50;1.00;;;;;;7370247;19;20007;-72
2024/02/15 08:00:45;;;;;;;10.57;2.80;;;11.60;1.00;;;;;;7368852;19;20026;-72
2024/02/15 08:03:16;;;;;;;6.90;2.88;;;11.70;1.00;;;;;;7368906;19;20015;-71
2024/02/15 08:05:46;;;;;;;7.30;2.60;;;11.80;1.00;;;;;;7367387;19;20006;-72
2024/02/15 08:08:16;;;;;;;6.35;2.90;;;11.70;1.00;;;;;;7368530;19;20018;-72
2024/02/15 08:10:48;;;;;;;7.60;3.40;;;11.80;1.00;;;;;;7368448;19;20037;-72
2024/02/15 08:13:22;;;;;;;8.23;3.25;;;11.80;1.00;;;;;;7364708;19;20046;-71
2024/02/15 08:15:55;;;;;;;4.18;2.67;;;11.80;1.00;;;;;;7367618;19;20007;-72
2024/02/15 08:18:25;;;;;;;7.75;3.17;;;12.00;1.00;;;;;;7366835;19;20006;-72
2024/02/15 08:20:56;;;;;;;6.88;3.35;;;12.00;1.00;;;;;;7368465;19;20443;-71
2024/02/15 08:23:27;;;;;;;5.00;2.85;;;12.00;1.00;;;;;;7366016;19;20809;-73
2024/02/15 08:25:57;;;;;;;6.30;2.90;;;12.00;1.00;;;;;;7366366;19;20006;-72
2024/02/15 08:28:28;;;;;;;6.30;3.00;;;12.00;1.00;;;;;;7367927;19;20477;-71
2024/02/15 08:31:00;;;;;;;6.03;3.50;;;12.00;1.00;;;;;;7368706;19;20383;-71
2024/02/15 08:33:31;;;;;;;7.28;3.05;;;12.10;1.00;;;;;;7366295;19;20006;-72
2024/02/15 08:36:02;;;;;;;9.38;4.00;;;12.10;1.00;;;;;;7364486;19;20021;-70
2024/02/15 08:38:34;;;;;;;5.95;2.85;;;12.30;1.00;;;;;;7369245;19;20122;-73
2024/02/15 08:41:04;;;;;;;7.00;2.97;;;12.30;1.00;;;;;;7366844;19;20018;-71
2024/02/15 08:43:35;;;;;;;7.40;3.08;;;12.30;1.00;;;;;;7366889;19;20018;-71
2024/02/15 08:46:08;;;;;;;8.77;3.00;;;12.30;1.00;;;;;;7365879;19;20539;-72
2024/02/15 08:48:38;;;;;;;5.55;3.35;;;12.20;1.00;;;;;;7368078;19;20538;-71
2024/02/15 08:51:09;;;;;;;5.28;2.97;;;12.20;1.00;;;;;;7368330;19;20010;-72
2024/02/15 08:53:39;;;;;;;5.63;3.35;;;12.20;1.00;;;;;;7365953;19;20085;-70
2024/02/15 08:56:10;;;;;;;7.22;5.13;;;12.10;1.00;;;;;;7365717;19;20014;-72
2024/02/15 08:58:42;;;;;;;5.22;3.25;;;12.20;1.00;;;;;;7367574;19;20015;-73
2024/02/15 09:01:15;;;;;;;6.28;3.22;;;12.20;1.00;;;;;;7368542;19;20022;-70
2024/02/15 09:03:46;;;;;;;6.25;2.90;;;12.30;1.00;;;;;;7363723;19;20017;-71
2024/02/15 09:06:16;;;;;;;9.23;2.80;;;12.20;1.00;;;;;;7364997;19;20007;-71
2024/02/15 09:08:46;;;;;;;7.05;2.75;;;12.30;1.00;;;;;;7367522;19;20014;-72
2024/02/15 09:11:16;;;;;;;4.75;3.05;;;12.50;1.00;;;;;;7365910;19;20022;-71
2024/02/15 09:13:49;;;;;;;8.52;2.70;;;12.40;1.00;;;;;;7366090;19;20067;-71
2024/02/15 09:16:22;;;;;;;6.70;2.72;;;12.50;1.00;;;;;;7364183;19;20031;-72
2024/02/15 09:18:52;;;;;;;7.63;3.00;;;12.50;1.00;;;;;;7366030;19;20031;-72
2024/02/15 09:21:25;;;;;;;8.93;3.03;;;12.60;1.00;;;;;;7367429;19;20486;-72
2024/02/15 09:23:56;;;;;;;4.63;2.15;;;12.60;1.00;;;;;;7366097;19;20624;-72
2024/02/15 09:26:27;;;;;;;4.50;1.90;;;12.60;1.00;;;;;;7370077;19;20082;-71
2024/02/15 09:28:57;;;;;;;5.57;2.65;;;12.60;1.00;;;;;;7374302;19;20039;-72
2024/02/15 09:31:30;;;;;;;6.05;2.20;;;12.80;1.00;;;;;;7373669;19;20006;-71
2024/02/15 09:34:00;;;;;;;8.00;2.35;;;12.90;1.00;;;;;;7372719;19;20086;-71
2024/02/15 09:36:30;;;;;;;7.82;4.47;;;12.90;1.00;;;;;;7370846;19;20014;-71
2024/02/15 09:39:01;;;;;;;4.43;2.35;;;13.00;1.00;;;;;;7373916;19;20483;-71
2024/02/15 09:41:31;;;;;;;3.75;1.98;;;13.10;1.00;;;;;;7372621;19;20010;-72
2024/02/15 09:44:01;;;;;;;5.75;2.38;;;13.20;1.00;;;;;;7371840;19;20014;-72
2024/02/15 09:46:38;;;;;;;7.05;2.22;;;13.30;1.00;;;;;;7369796;19;20011;-72
2024/02/15 09:49:08;;;;;;;4.10;2.00;;;13.30;1.00;;;;;;7372381;19;20021;-72
2024/02/15 09:51:40;;;;;;;4.65;2.45;;;13.40;1.00;;;;;;7372741;19;20007;-72
2024/02/15 09:54:13;;;;;;;6.28;2.35;;;13.40;1.00;;;;;;7371602;19;20007;-72
2024/02/15 09:56:43;;;;;;;8.45;2.50;;;13.60;1.00;;;;;;7369937;19;20010;-72
2024/02/15 09:59:14;;;;;;;60.55;39.28;;;13.70;1.00;;;;;;7371754;19;20100;-71
2024/02/15 10:01:49;;;;;;;3.67;2.50;;;13.80;1.00;;;;;;7373186;19;20021;-72
2024/02/15 10:04:19;;;;;;;4.80;1.90;;;13.80;1.00;;;;;;7370780;19;20010;-72
2024/02/15 10:06:49;;;;;;;6.53;2.42;;;13.80;1.00;;;;;;7369251;19;20014;-72
2024/02/15 10:09:30;;;;;;;5.82;2.17;;;13.90;1.00;;;;;;7371365;19;20486;-72
2024/02/15 10:12:01;;;;;;;3.83;1.85;;;14.00;1.00;;;;;;7368226;19;20027;-72
2024/02/15 10:14:33;;;;;;;2.78;1.70;;;14.10;1.00;;;;;;7366997;19;20007;-72
2024/02/15 10:17:12;;;;;;;6.00;2.03;;;14.20;1.00;;;;;;7369514;19;20454;-71
2024/02/15 10:19:44;;;;;;;9.55;2.20;;;14.20;1.00;;;;;;7372477;19;20010;-71
2024/02/15 10:22:14;;;;;;;5.75;1.80;;;14.20;1.00;;;;;;7371014;19;20127;-72
2024/02/15 10:24:45;;;;;;;5.80;2.08;;;14.20;1.00;;;;;;7370956;19;20007;-72
2024/02/15 10:27:15;;;;;;;5.03;2.97;;;14.30;1.00;;;;;;7370234;19;20244;-71
2024/02/15 10:29:47;;;;;;;3.70;1.88;;;14.40;1.00;;;;;;7369446;19;20014;-71
2024/02/15 10:32:20;;;;;;;3.03;1.55;;;14.50;1.00;;;;;;7369688;19;20381;-73
2024/02/15 10:34:50;;;;;;;5.07;1.70;;;14.40;1.00;;;;;;7370463;19;20010;-73
2024/02/15 10:37:21;;;;;;;4.10;2.00;;;14.50;1.00;;;;;;7368064;19;20022;-72
2024/02/15 10:40:07;;;;;;;5.32;2.08;;;14.50;1.00;;;;;;7371367;19;20023;-73
2024/02/15 10:42:39;;;;;;;4.32;1.70;;;14.60;1.00;;;;;;7366498;19;20014;-72
2024/02/15 10:45:11;;;;;;;6.05;1.75;;;14.60;1.00;;;;;;7369541;19;20006;-72
2024/02/15 10:47:45;;;;;;;4.30;1.60;;;14.50;1.00;;;;;;7369501;19;20018;-72
2024/02/15 10:50:16;;;;;;;5.00;1.80;;;14.70;1.00;;;;;;7371018;19;20105;-72
2024/02/15 10:52:56;;;;;;;3.97;1.48;;;14.90;1.00;;;;;;7370037;19;20015;-72
2024/02/15 10:55:41;;;;;;;5.68;1.83;;;14.90;1.00;;;;;;7370460;19;20437;-72
2024/02/15 10:58:19;;;;;;;6.47;2.15;;;15.10;1.00;;;;;;6861367;19;2005112;-72
2024/02/15 11:00:50;;;;;;;3.75;1.50;;;15.10;1.00;;;;;;7371014;19;20010;-72
2024/02/15 11:03:31;;;;;;;5.60;1.50;;;15.00;1.00;;;;;;7369185;19;20067;-72
2024/02/15 11:06:04;;;;;;;8.45;2.08;;;15.20;1.00;;;;;;7370314;19;20370;-71
2024/02/15 11:08:35;;;;;;;3.88;1.38;;;14.90;1.00;;;;;;7368437;19;20020;-72
2024/02/15 11:11:06;;;;;;;3.10;1.27;;;14.80;1.00;;;;;;7370423;19;20018;-71
2024/02/15 11:13:37;;;;;;;3.00;1.50;;;14.90;1.00;;;;;;7364113;19;20010;-72
2024/02/15 11:16:07;;;;;;;5.25;1.90;;;14.90;1.00;;;;;;7369932;19;20757;-72
2024/02/15 11:18:51;;;;;;;4.03;1.60;;;15.20;1.00;;;;;;7371230;19;20039;-72
2024/02/15 11:21:58;;;;;;;3.05;1.35;;;15.10;1.00;;;;;;6859197;19;2004852;-72
2024/02/15 11:24:29;;;;;;;3.72;1.27;;;15.20;1.00;;;;;;6859441;19;2004125;-71
2024/02/15 11:27:02;;;;;;;2.10;1.30;;;15.20;1.00;;;;;;7369806;19;20078;-72
2024/02/15 11:29:49;;;;;;;3.67;1.17;;;15.30;1.00;;;;;;7369572;19;20014;-72
2024/02/15 11:32:39;;;;;;;2.83;1.38;;;15.70;1.00;;;;;;7365584;19;20025;-72
2024/02/15 11:35:14;;;;;;;4.20;1.40;;;15.60;1.00;;;;;;7368367;19;20042;-72
2024/02/15 11:38:03;;;;;;;3.38;1.20;;;15.60;1.00;;;;;;7371061;19;20392;-72
2024/02/15 11:41:05;;;;;;;4.20;1.58;;;15.50;1.00;;;;;;6856744;19;2004018;-73
2024/02/15 11:43:49;;;;;;;2.83;1.30;;;15.60;1.00;;;;;;6858096;19;2004958;-72
2024/02/15 11:46:22;;;;;;;8.88;1.42;;;15.60;1.00;;;;;;7368436;19;20613;-71
2024/02/15 11:48:52;;;;;;;2.65;1.40;;;15.50;1.00;;;;;;7370799;19;20010;-72
2024/02/15 11:51:36;;;;;;;4.85;1.73;;;15.50;1.00;;;;;;7368715;19;20010;-73
2024/02/15 11:54:11;;;;;;;8.93;2.53;;;15.60;1.00;;;;;;7366232;19;20426;-72
2024/02/15 11:57:05;;;;;;;3.55;1.60;;;15.80;1.00;;;;;;7367854;19;20019;-72
2024/02/15 12:18:38;;;;;;;5.57;1.45;;;15.90;1.00;;;;;;6857478;19;2004752;-72
2024/02/15 12:19:10;;;;;;;2.75;1.45;;;16.20;1.00;;;;;;6858037;19;2004811;-71
2024/02/15 12:21:41;;;;;;;5.47;1.45;;;16.20;1.00;;;;;;7368310;19;20082;-72
2024/02/15 12:24:16;;;;;;;6.55;1.10;;;16.30;1.00;;;;;;7366817;19;20516;-72
2024/02/15 12:26:47;;;;;;;2.97;1.10;;;16.30;1.00;;;;;;7365951;19;20404;-72
2024/02/15 12:29:19;;;;;;;2.22;1.10;;;16.30;1.00;;;;;;7365022;19;20006;-71
2024/02/15 12:31:50;;;;;;;3.80;1.17;;;16.40;1.00;;;;;;7366710;19;20014;-72
2024/02/15 12:34:23;;;;;;;3.55;1.20;;;16.40;1.00;;;;;;7365867;19;20369;-72
2024/02/15 12:37:07;;;;;;;7.35;1.85;;;16.20;1.00;;;;;;7367376;19;20002;-72
2024/02/15 12:39:41;;;;;;;2.67;1.30;;;16.40;1.00;;;;;;7365824;19;20006;-72
2024/02/15 12:42:12;;;;;;;3.88;1.80;;;16.50;1.00;;;;;;7366980;19;20014;-72
2024/02/15 12:44:48;;;;;;;3.80;1.42;;;16.30;1.00;;;;;;7365609;19;20030;-72
2024/02/15 12:47:22;;;;;;;3.55;1.58;;;16.40;1.00;;;;;;7365705;19;20006;-72
2024/02/15 12:49:54;;;;;;;3.35;1.30;;;16.40;1.00;;;;;;7366591;19;20697;-71
2024/02/15 12:52:46;;;;;;;3.38;1.30;;;16.30;1.00;;;;;;7364746;19;20014;-73
2024/02/15 12:55:20;;;;;;;3.78;1.90;;;16.40;1.00;;;;;;7261949;19;2003951;-71
2024/02/15 12:57:51;;;;;;;5.35;1.48;;;16.30;1.00;;;;;;7365973;19;20029;-72
2024/02/15 13:00:27;;;;;;;3.35;1.52;;;16.40;1.00;;;;;;7364143;19;20039;-71
2024/02/15 13:02:58;;;;;;;3.40;1.20;;;16.40;1.00;;;;;;7365953;19;20013;-73
2024/02/15 13:05:30;;;;;;;5.72;1.30;;;16.40;1.00;;;;;;7364543;19;20070;-71
2024/02/15 13:08:01;;;;;;;16.23;1.60;;;16.50;1.00;;;;;;7365550;19;20021;-72
2024/02/15 13:10:35;;;;;;;5.60;1.30;;;16.30;1.00;;;;;;7364750;19;20022;-72
2024/02/15 13:13:05;;;;;;;4.18;1.13;;;16.50;1.00;;;;;;7364601;19;20026;-72
2024/02/15 13:15:37;;;;;;;4.03;1.33;;;16.60;1.00;;;;;;7364297;19;20062;-71
2024/02/15 13:18:09;;;;;;;5.13;1.45;;;16.40;1.00;;;;;;7366656;19;20051;-71
2024/02/15 13:20:40;;;;;;;4.65;1.40;;;16.50;1.00;;;;;;7367345;19;20018;-73
2024/02/15 13:23:14;;;;;;;4.50;1.38;;;16.50;1.00;;;;;;7365055;19;20598;-71
2024/02/15 13:25:48;;;;;;;;;;;16.40;1.00;;;;;;7362140;19;20063;-71
2024/02/15 13:28:18;;;;;;;5.30;1.60;;;16.50;1.00;;;;;;7367348;19;19927;-72
2024/02/15 13:30:49;;;;;;;2.08;1.23;;;16.40;1.00;;;;;;7368116;19;20014;-72
2024/02/15 13:33:20;;;;;;;3.05;1.30;;;16.40;1.00;;;;;;7362238;19;20078;-72
2024/02/15 13:35:52;;;;;;;3.67;1.30;;;16.50;1.00;;;;;;7362857;19;20858;-73
2024/02/15 13:38:25;;;;;;;4.85;1.50;;;16.50;1.00;;;;;;7366065;19;20016;-72
2024/02/15 13:40:59;;;;;;;6.45;1.67;;;16.40;1.00;;;;;;7364330;19;20010;-72
2024/02/15 13:43:30;;;;;;;6.07;1.50;;;16.40;1.00;;;;;;7364915;19;20372;-71
2024/02/15 13:46:01;;;;;;;4.78;1.45;;;16.50;1.00;;;;;;7364204;19;20462;-71
2024/02/15 13:48:33;;;;;;;2.63;1.50;;;16.40;1.00;;;;;;7365653;19;20026;-73
2024/02/15 13:51:03;;;;;;;4.50;1.48;;;16.50;1.00;;;;;;7364404;19;20515;-72
2024/02/15 13:53:34;;;;;;;2.83;1.63;;;16.60;1.00;;;;;;7365337;19;20480;-70